sensor_id;sensor_type;location;lat;lon;timestamp;temperature;humidity
18932;DHT22;9598;50.954;3.112;2022-11-15T00:00:37;10.80;99.90
18932;DHT22;9598;50.954;3.112;2022-11-15T00:06:02;10.80;99.90
18932;DHT22;9598;50.954;3.112;2022-11-15T00:11:23;10.90;99.90
18932;DHT22;9598;50.954;3.112;2022-11-15T00:16:45;11.00;99.90
18932;DHT22;9598;50.954;3.112;2022-11-15T00:22:08;11.00;99.90
18932;DHT22;9598;50.954;3.112;2022-11-15T00:27:29;11.10;99.90
18932;DHT22;9598;50.954;3.112;2022-11-15T00:32:50;11.20;99.90
18932;DHT22;9598;50.954;3.112;2022-11-15T00:38:12;11.20;99.90
18932;DHT22;9598;50.954;3.112;2022-11-15T00:43:32;11.30;99.90
18932;DHT22;9598;50.954;3.112;2022-11-15T00:48:53;11.30;99.90
18932;DHT22;9598;50.954;3.112;2022-11-15T00:54:15;11.30;99.90
18932;DHT22;9598;50.954;3.112;2022-11-15T00:59:35;11.30;99.90
18932;DHT22;9598;50.954;3.112;2022-11-15T01:04:56;11.40;99.90
18932;DHT22;9598;50.954;3.112;2022-11-15T01:10:18;11.40;99.90
18932;DHT22;9598;50.954;3.112;2022-11-15T01:15:39;11.40;99.90
18932;DHT22;9598;50.954;3.112;2022-11-15T01:21:05;11.50;99.90
18932;DHT22;9598;50.954;3.112;2022-11-15T01:26:27;11.50;99.90
18932;DHT22;9598;50.954;3.112;2022-11-15T01:31:47;11.50;99.90
18932;DHT22;9598;50.954;3.112;2022-11-15T01:37:08;11.50;99.90
18932;DHT22;9598;50.954;3.112;2022-11-15T01:42:30;11.50;99.90
18932;DHT22;9598;50.954;3.112;2022-11-15T01:47:52;11.60;99.90
18932;DHT22;9598;50.954;3.112;2022-11-15T01:53:14;11.60;99.90
18932;DHT22;9598;50.954;3.112;2022-11-15T01:58:37;11.60;99.90
18932;DHT22;9598;50.954;3.112;2022-11-15T02:04:00;11.50;99.90
18932;DHT22;9598;50.954;3.112;2022-11-15T02:09:22;11.60;99.90
18932;DHT22;9598;50.954;3.112;2022-11-15T02:14:48;11.60;99.90
18932;DHT22;9598;50.954;3.112;2022-11-15T02:20:45;11.50;99.90
18932;DHT22;9598;50.954;3.112;2022-11-15T02:26:26;11.50;99.90
18932;DHT22;9598;50.954;3.112;2022-11-15T02:31:55;11.40;99.90
18932;DHT22;9598;50.954;3.112;2022-11-15T02:37:23;11.40;99.90
18932;DHT22;9598;50.954;3.112;2022-11-15T02:42:51;11.40;99.90
18932;DHT22;9598;50.954;3.112;2022-11-15T02:48:33;11.40;99.90
18932;DHT22;9598;50.954;3.112;2022-11-15T02:53:54;11.30;99.90
18932;DHT22;9598;50.954;3.112;2022-11-15T03:05:08;11.20;99.90
18932;DHT22;9598;50.954;3.112;2022-11-15T03:10:36;11.20;99.90
18932;DHT22;9598;50.954;3.112;2022-11-15T03:16:03;11.20;99.90
18932;DHT22;9598;50.954;3.112;2022-11-15T03:21:28;11.10;99.90
18932;DHT22;9598;50.954;3.112;2022-11-15T03:26:50;11.10;99.90
18932;DHT22;9598;50.954;3.112;2022-11-15T03:32:16;11.10;99.90
18932;DHT22;9598;50.954;3.112;2022-11-15T03:37:44;11.00;99.90
18932;DHT22;9598;50.954;3.112;2022-11-15T03:43:09;11.00;99.90
18932;DHT22;9598;50.954;3.112;2022-11-15T03:48:34;11.00;99.90
18932;DHT22;9598;50.954;3.112;2022-11-15T03:53:57;10.90;99.90
18932;DHT22;9598;50.954;3.112;2022-11-15T03:59:18;10.90;99.90
18932;DHT22;9598;50.954;3.112;2022-11-15T04:04:39;10.80;99.90
18932;DHT22;9598;50.954;3.112;2022-11-15T04:10:01;10.80;99.90
18932;DHT22;9598;50.954;3.112;2022-11-15T04:15:24;10.80;99.90
18932;DHT22;9598;50.954;3.112;2022-11-15T04:20:45;10.70;99.90
18932;DHT22;9598;50.954;3.112;2022-11-15T04:26:24;10.70;99.90
18932;DHT22;9598;50.954;3.112;2022-11-15T04:31:45;10.70;99.90
18932;DHT22;9598;50.954;3.112;2022-11-15T04:37:05;10.60;99.90
18932;DHT22;9598;50.954;3.112;2022-11-15T04:42:33;10.60;99.90
18932;DHT22;9598;50.954;3.112;2022-11-15T04:47:54;10.60;99.90
18932;DHT22;9598;50.954;3.112;2022-11-15T04:53:15;10.50;99.90
18932;DHT22;9598;50.954;3.112;2022-11-15T04:58:37;10.50;99.90
18932;DHT22;9598;50.954;3.112;2022-11-15T05:03:57;10.40;99.90
18932;DHT22;9598;50.954;3.112;2022-11-15T05:09:35;10.40;99.90
18932;DHT22;9598;50.954;3.112;2022-11-15T05:14:57;10.40;99.90
18932;DHT22;9598;50.954;3.112;2022-11-15T05:20:18;10.40;99.90
18932;DHT22;9598;50.954;3.112;2022-11-15T05:25:39;10.40;99.90
18932;DHT22;9598;50.954;3.112;2022-11-15T05:31:02;10.30;99.90
18932;DHT22;9598;50.954;3.112;2022-11-15T05:36:29;10.30;99.90
18932;DHT22;9598;50.954;3.112;2022-11-15T05:41:54;10.30;99.90
18932;DHT22;9598;50.954;3.112;2022-11-15T05:47:19;10.30;99.90
18932;DHT22;9598;50.954;3.112;2022-11-15T05:52:40;10.20;99.90
18932;DHT22;9598;50.954;3.112;2022-11-15T05:58:01;10.20;99.90
18932;DHT22;9598;50.954;3.112;2022-11-15T06:03:23;10.20;99.90
18932;DHT22;9598;50.954;3.112;2022-11-15T06:08:44;10.20;99.90
18932;DHT22;9598;50.954;3.112;2022-11-15T06:14:05;10.10;99.90
18932;DHT22;9598;50.954;3.112;2022-11-15T06:19:27;10.10;99.90
18932;DHT22;9598;50.954;3.112;2022-11-15T06:24:52;10.00;99.90
18932;DHT22;9598;50.954;3.112;2022-11-15T06:30:12;10.00;99.90
18932;DHT22;9598;50.954;3.112;2022-11-15T06:35:35;10.00;99.90
18932;DHT22;9598;50.954;3.112;2022-11-15T06:41:01;10.00;99.90
18932;DHT22;9598;50.954;3.112;2022-11-15T06:46:22;10.00;99.90
18932;DHT22;9598;50.954;3.112;2022-11-15T06:51:44;10.00;99.90
18932;DHT22;9598;50.954;3.112;2022-11-15T06:57:04;10.00;99.90
18932;DHT22;9598;50.954;3.112;2022-11-15T07:02:25;9.90;99.90
18932;DHT22;9598;50.954;3.112;2022-11-15T07:07:52;9.90;99.90
18932;DHT22;9598;50.954;3.112;2022-11-15T07:13:13;9.90;99.90
18932;DHT22;9598;50.954;3.112;2022-11-15T07:18:34;10.00;99.90
18932;DHT22;9598;50.954;3.112;2022-11-15T07:23:56;9.90;99.90
18932;DHT22;9598;50.954;3.112;2022-11-15T07:29:16;10.00;99.90
18932;DHT22;9598;50.954;3.112;2022-11-15T07:34:37;10.00;99.90
18932;DHT22;9598;50.954;3.112;2022-11-15T07:39:59;10.00;99.90
18932;DHT22;9598;50.954;3.112;2022-11-15T07:45:20;10.00;99.90
18932;DHT22;9598;50.954;3.112;2022-11-15T07:50:41;10.10;99.90
18932;DHT22;9598;50.954;3.112;2022-11-15T07:56:05;10.10;99.90
18932;DHT22;9598;50.954;3.112;2022-11-15T08:01:26;10.10;99.90
18932;DHT22;9598;50.954;3.112;2022-11-15T08:06:47;10.10;99.90
18932;DHT22;9598;50.954;3.112;2022-11-15T08:12:09;10.10;99.90
18932;DHT22;9598;50.954;3.112;2022-11-15T08:17:30;10.10;99.90
18932;DHT22;9598;50.954;3.112;2022-11-15T08:22:52;10.20;99.90
18932;DHT22;9598;50.954;3.112;2022-11-15T08:28:16;10.20;99.90
18932;DHT22;9598;50.954;3.112;2022-11-15T08:33:37;10.30;99.90
18932;DHT22;9598;50.954;3.112;2022-11-15T08:38:58;10.30;99.90
18932;DHT22;9598;50.954;3.112;2022-11-15T08:44:20;10.30;99.90
18932;DHT22;9598;50.954;3.112;2022-11-15T08:49:40;10.40;99.90
18932;DHT22;9598;50.954;3.112;2022-11-15T08:55:01;10.40;99.90
18932;DHT22;9598;50.954;3.112;2022-11-15T09:00:23;10.40;99.90
18932;DHT22;9598;50.954;3.112;2022-11-15T09:05:43;10.50;99.90
18932;DHT22;9598;50.954;3.112;2022-11-15T09:11:07;10.60;99.90
18932;DHT22;9598;50.954;3.112;2022-11-15T09:16:30;10.60;99.90
18932;DHT22;9598;50.954;3.112;2022-11-15T09:21:50;10.70;99.90
18932;DHT22;9598;50.954;3.112;2022-11-15T09:27:11;10.80;99.90
18932;DHT22;9598;50.954;3.112;2022-11-15T09:32:34;10.90;99.90
18932;DHT22;9598;50.954;3.112;2022-11-15T09:37:54;11.00;99.90
18932;DHT22;9598;50.954;3.112;2022-11-15T09:43:28;11.00;99.90
18932;DHT22;9598;50.954;3.112;2022-11-15T09:48:53;11.10;99.90
18932;DHT22;9598;50.954;3.112;2022-11-15T09:54:21;11.20;99.90
18932;DHT22;9598;50.954;3.112;2022-11-15T09:59:37;11.20;99.90
18932;DHT22;9598;50.954;3.112;2022-11-15T10:04:42;11.30;99.90
18932;DHT22;9598;50.954;3.112;2022-11-15T10:09:49;11.40;99.90
18932;DHT22;9598;50.954;3.112;2022-11-15T10:14:58;11.40;99.90
18932;DHT22;9598;50.954;3.112;2022-11-15T10:20:10;11.50;99.90
18932;DHT22;9598;50.954;3.112;2022-11-15T10:25:21;11.50;99.90
18932;DHT22;9598;50.954;3.112;2022-11-15T10:30:30;11.50;99.90
18932;DHT22;9598;50.954;3.112;2022-11-15T10:35:34;11.60;99.90
18932;DHT22;9598;50.954;3.112;2022-11-15T10:40:38;11.60;99.90
18932;DHT22;9598;50.954;3.112;2022-11-15T10:45:40;11.70;99.90
18932;DHT22;9598;50.954;3.112;2022-11-15T10:50:45;11.80;99.90
18932;DHT22;9598;50.954;3.112;2022-11-15T10:55:50;11.90;99.90
18932;DHT22;9598;50.954;3.112;2022-11-15T11:00:53;11.90;99.90
18932;DHT22;9598;50.954;3.112;2022-11-15T11:06:16;12.00;99.90
18932;DHT22;9598;50.954;3.112;2022-11-15T11:11:18;12.10;99.90
18932;DHT22;9598;50.954;3.112;2022-11-15T11:21:51;12.20;99.90
18932;DHT22;9598;50.954;3.112;2022-11-15T11:27:12;12.30;99.90
18932;DHT22;9598;50.954;3.112;2022-11-15T11:32:28;12.40;99.90
18932;DHT22;9598;50.954;3.112;2022-11-15T11:37:39;12.40;99.90
18932;DHT22;9598;50.954;3.112;2022-11-15T11:42:48;12.40;99.90
18932;DHT22;9598;50.954;3.112;2022-11-15T11:48:04;12.50;99.90
18932;DHT22;9598;50.954;3.112;2022-11-15T11:53:13;12.50;99.90
18932;DHT22;9598;50.954;3.112;2022-11-15T11:58:19;12.50;99.90
18932;DHT22;9598;50.954;3.112;2022-11-15T12:03:28;12.50;99.90
18932;DHT22;9598;50.954;3.112;2022-11-15T12:08:41;12.50;99.90
18932;DHT22;9598;50.954;3.112;2022-11-15T12:13:49;12.60;99.90
18932;DHT22;9598;50.954;3.112;2022-11-15T12:18:55;12.60;99.90
18932;DHT22;9598;50.954;3.112;2022-11-15T12:24:02;12.60;99.90
18932;DHT22;9598;50.954;3.112;2022-11-15T12:29:14;12.70;99.90
18932;DHT22;9598;50.954;3.112;2022-11-15T12:34:36;12.70;99.90
18932;DHT22;9598;50.954;3.112;2022-11-15T12:45:28;12.80;99.90
18932;DHT22;9598;50.954;3.112;2022-11-15T12:50:57;12.80;99.90
18932;DHT22;9598;50.954;3.112;2022-11-15T12:56:23;12.70;99.90
18932;DHT22;9598;50.954;3.112;2022-11-15T13:12:57;12.60;99.90
18932;DHT22;9598;50.954;3.112;2022-11-15T13:18:25;12.60;99.90
18932;DHT22;9598;50.954;3.112;2022-11-15T13:23:30;12.50;99.90
18932;DHT22;9598;50.954;3.112;2022-11-15T13:28:36;12.50;99.90
18932;DHT22;9598;50.954;3.112;2022-11-15T13:33:39;12.50;99.90
18932;DHT22;9598;50.954;3.112;2022-11-15T13:38:43;12.50;99.90
18932;DHT22;9598;50.954;3.112;2022-11-15T13:43:45;12.50;99.90
18932;DHT22;9598;50.954;3.112;2022-11-15T13:48:52;12.50;99.90
18932;DHT22;9598;50.954;3.112;2022-11-15T13:54:00;12.40;99.90
18932;DHT22;9598;50.954;3.112;2022-11-15T13:59:09;12.40;99.90
18932;DHT22;9598;50.954;3.112;2022-11-15T14:04:13;12.40;99.90
18932;DHT22;9598;50.954;3.112;2022-11-15T14:09:29;12.40;99.90
18932;DHT22;9598;50.954;3.112;2022-11-15T14:14:33;12.40;99.90
18932;DHT22;9598;50.954;3.112;2022-11-15T14:19:45;12.40;99.90
18932;DHT22;9598;50.954;3.112;2022-11-15T14:25:15;12.30;99.90
18932;DHT22;9598;50.954;3.112;2022-11-15T14:30:18;12.30;99.90
18932;DHT22;9598;50.954;3.112;2022-11-15T14:35:22;12.30;99.90
18932;DHT22;9598;50.954;3.112;2022-11-15T14:40:26;12.30;99.90
18932;DHT22;9598;50.954;3.112;2022-11-15T14:45:28;12.30;99.90
18932;DHT22;9598;50.954;3.112;2022-11-15T14:50:32;12.20;99.90
18932;DHT22;9598;50.954;3.112;2022-11-15T14:55:36;12.20;99.90
18932;DHT22;9598;50.954;3.112;2022-11-15T15:00:39;12.30;99.90
18932;DHT22;9598;50.954;3.112;2022-11-15T15:05:43;12.30;99.90
18932;DHT22;9598;50.954;3.112;2022-11-15T15:10:46;12.30;99.90
18932;DHT22;9598;50.954;3.112;2022-11-15T15:15:49;12.30;99.90
18932;DHT22;9598;50.954;3.112;2022-11-15T15:20:56;12.30;99.90
18932;DHT22;9598;50.954;3.112;2022-11-15T15:26:01;12.30;99.90
18932;DHT22;9598;50.954;3.112;2022-11-15T15:31:04;12.30;99.90
18932;DHT22;9598;50.954;3.112;2022-11-15T15:36:09;12.30;99.90
18932;DHT22;9598;50.954;3.112;2022-11-15T15:41:15;12.20;99.90
18932;DHT22;9598;50.954;3.112;2022-11-15T15:46:19;12.30;99.90
18932;DHT22;9598;50.954;3.112;2022-11-15T15:51:21;12.40;99.90
18932;DHT22;9598;50.954;3.112;2022-11-15T15:56:24;12.40;99.90
18932;DHT22;9598;50.954;3.112;2022-11-15T16:01:28;12.40;99.90
18932;DHT22;9598;50.954;3.112;2022-11-15T16:06:36;12.40;99.90
18932;DHT22;9598;50.954;3.112;2022-11-15T16:11:40;12.40;99.90
18932;DHT22;9598;50.954;3.112;2022-11-15T16:16:42;12.40;99.90
18932;DHT22;9598;50.954;3.112;2022-11-15T16:21:44;12.40;99.90
18932;DHT22;9598;50.954;3.112;2022-11-15T16:26:48;12.40;99.90
18932;DHT22;9598;50.954;3.112;2022-11-15T16:31:51;12.50;99.90
18932;DHT22;9598;50.954;3.112;2022-11-15T16:36:53;12.50;99.90
18932;DHT22;9598;50.954;3.112;2022-11-15T16:41:57;12.50;99.90
18932;DHT22;9598;50.954;3.112;2022-11-15T16:46:59;12.50;99.90
18932;DHT22;9598;50.954;3.112;2022-11-15T16:52:02;12.50;99.90
18932;DHT22;9598;50.954;3.112;2022-11-15T16:57:07;12.50;99.90
18932;DHT22;9598;50.954;3.112;2022-11-15T17:02:11;12.60;99.90
18932;DHT22;9598;50.954;3.112;2022-11-15T17:07:13;12.50;99.90
18932;DHT22;9598;50.954;3.112;2022-11-15T17:12:17;12.60;99.90
18932;DHT22;9598;50.954;3.112;2022-11-15T17:17:19;12.60;99.90
18932;DHT22;9598;50.954;3.112;2022-11-15T17:22:21;12.60;99.90
18932;DHT22;9598;50.954;3.112;2022-11-15T17:27:24;12.60;99.90
18932;DHT22;9598;50.954;3.112;2022-11-15T17:32:26;12.60;99.90
18932;DHT22;9598;50.954;3.112;2022-11-15T17:37:28;12.60;99.90
18932;DHT22;9598;50.954;3.112;2022-11-15T17:42:32;12.60;99.90
18932;DHT22;9598;50.954;3.112;2022-11-15T17:47:34;12.60;99.90
18932;DHT22;9598;50.954;3.112;2022-11-15T17:52:36;12.60;99.90
18932;DHT22;9598;50.954;3.112;2022-11-15T17:57:39;12.60;99.90
18932;DHT22;9598;50.954;3.112;2022-11-15T18:02:41;12.60;99.90
18932;DHT22;9598;50.954;3.112;2022-11-15T18:07:45;12.60;99.90
18932;DHT22;9598;50.954;3.112;2022-11-15T18:12:49;12.60;99.90
18932;DHT22;9598;50.954;3.112;2022-11-15T18:17:51;12.60;99.90
18932;DHT22;9598;50.954;3.112;2022-11-15T18:22:53;12.70;99.90
18932;DHT22;9598;50.954;3.112;2022-11-15T18:27:56;12.70;99.90
18932;DHT22;9598;50.954;3.112;2022-11-15T18:32:58;12.70;99.90
18932;DHT22;9598;50.954;3.112;2022-11-15T18:38:00;12.80;99.90
18932;DHT22;9598;50.954;3.112;2022-11-15T18:43:04;12.80;99.90
18932;DHT22;9598;50.954;3.112;2022-11-15T18:48:06;12.80;99.90
18932;DHT22;9598;50.954;3.112;2022-11-15T18:53:08;12.80;99.90
18932;DHT22;9598;50.954;3.112;2022-11-15T18:58:11;12.90;99.90
18932;DHT22;9598;50.954;3.112;2022-11-15T19:03:13;12.80;99.90
18932;DHT22;9598;50.954;3.112;2022-11-15T19:08:15;12.90;99.90
18932;DHT22;9598;50.954;3.112;2022-11-15T19:13:18;12.90;99.90
18932;DHT22;9598;50.954;3.112;2022-11-15T19:18:20;12.90;99.90
18932;DHT22;9598;50.954;3.112;2022-11-15T19:23:23;12.90;99.90
18932;DHT22;9598;50.954;3.112;2022-11-15T19:28:29;13.00;99.90
18932;DHT22;9598;50.954;3.112;2022-11-15T19:33:32;12.90;99.90
18932;DHT22;9598;50.954;3.112;2022-11-15T19:38:37;13.00;99.90
18932;DHT22;9598;50.954;3.112;2022-11-15T19:43:42;13.00;99.90
18932;DHT22;9598;50.954;3.112;2022-11-15T19:48:47;13.00;99.90
18932;DHT22;9598;50.954;3.112;2022-11-15T19:53:53;13.00;99.90
18932;DHT22;9598;50.954;3.112;2022-11-15T19:58:56;13.00;99.90
18932;DHT22;9598;50.954;3.112;2022-11-15T20:03:59;13.00;99.90
18932;DHT22;9598;50.954;3.112;2022-11-15T20:09:02;13.10;99.90
18932;DHT22;9598;50.954;3.112;2022-11-15T20:14:06;13.00;99.90
18932;DHT22;9598;50.954;3.112;2022-11-15T20:19:10;13.10;99.90
18932;DHT22;9598;50.954;3.112;2022-11-15T20:24:15;13.10;99.90
18932;DHT22;9598;50.954;3.112;2022-11-15T20:29:18;13.10;99.90
18932;DHT22;9598;50.954;3.112;2022-11-15T20:34:21;13.10;99.90
18932;DHT22;9598;50.954;3.112;2022-11-15T20:39:23;13.10;99.90
18932;DHT22;9598;50.954;3.112;2022-11-15T20:44:26;13.10;99.90
18932;DHT22;9598;50.954;3.112;2022-11-15T20:49:28;13.20;99.90
18932;DHT22;9598;50.954;3.112;2022-11-15T20:54:30;13.20;99.90
18932;DHT22;9598;50.954;3.112;2022-11-15T20:59:34;13.20;99.90
18932;DHT22;9598;50.954;3.112;2022-11-15T21:04:36;13.20;99.90
18932;DHT22;9598;50.954;3.112;2022-11-15T21:09:38;13.20;99.90
18932;DHT22;9598;50.954;3.112;2022-11-15T21:14:59;13.20;99.90
18932;DHT22;9598;50.954;3.112;2022-11-15T21:20:01;13.30;99.90
18932;DHT22;9598;50.954;3.112;2022-11-15T21:25:04;13.20;99.90
18932;DHT22;9598;50.954;3.112;2022-11-15T21:30:08;13.30;99.90
18932;DHT22;9598;50.954;3.112;2022-11-15T21:35:10;13.30;99.90
18932;DHT22;9598;50.954;3.112;2022-11-15T21:40:14;13.30;99.90
18932;DHT22;9598;50.954;3.112;2022-11-15T21:45:17;13.20;99.90
18932;DHT22;9598;50.954;3.112;2022-11-15T21:50:19;13.20;99.90
18932;DHT22;9598;50.954;3.112;2022-11-15T21:55:21;13.20;99.90
18932;DHT22;9598;50.954;3.112;2022-11-15T22:00:25;13.10;99.90
18932;DHT22;9598;50.954;3.112;2022-11-15T22:05:44;13.00;99.90
18932;DHT22;9598;50.954;3.112;2022-11-15T22:10:46;13.00;99.90
18932;DHT22;9598;50.954;3.112;2022-11-15T22:15:50;13.00;99.90
18932;DHT22;9598;50.954;3.112;2022-11-15T22:20:54;13.00;99.90
18932;DHT22;9598;50.954;3.112;2022-11-15T22:25:56;13.00;99.90
18932;DHT22;9598;50.954;3.112;2022-11-15T22:31:00;13.00;99.90
18932;DHT22;9598;50.954;3.112;2022-11-15T22:36:03;13.00;99.90
18932;DHT22;9598;50.954;3.112;2022-11-15T22:41:06;13.00;99.90
18932;DHT22;9598;50.954;3.112;2022-11-15T22:46:09;13.00;99.90
18932;DHT22;9598;50.954;3.112;2022-11-15T22:51:11;12.90;99.90
18932;DHT22;9598;50.954;3.112;2022-11-15T22:56:13;13.00;99.90
18932;DHT22;9598;50.954;3.112;2022-11-15T23:01:19;12.90;99.90
18932;DHT22;9598;50.954;3.112;2022-11-15T23:06:22;12.90;99.90
18932;DHT22;9598;50.954;3.112;2022-11-15T23:11:24;12.90;99.90
18932;DHT22;9598;50.954;3.112;2022-11-15T23:16:45;12.90;99.90
18932;DHT22;9598;50.954;3.112;2022-11-15T23:21:47;12.90;99.90
18932;DHT22;9598;50.954;3.112;2022-11-15T23:27:07;12.80;99.90
18932;DHT22;9598;50.954;3.112;2022-11-15T23:32:10;12.80;99.90
18932;DHT22;9598;50.954;3.112;2022-11-15T23:37:41;12.80;99.90
18932;DHT22;9598;50.954;3.112;2022-11-15T23:42:43;12.80;99.90
18932;DHT22;9598;50.954;3.112;2022-11-15T23:47:47;12.80;99.90
18932;DHT22;9598;50.954;3.112;2022-11-15T23:52:49;12.70;99.90
18932;DHT22;9598;50.954;3.112;2022-11-15T23:57:51;12.70;99.90
